sensor_id;sensor_type;location;lat;lon;timestamp;temperature;humidity
4693;DHT22;11710;48.024;16.296;2023-01-25T06:56:07;4.00;99.90
4693;DHT22;11710;48.024;16.296;2023-01-25T06:58:35;4.00;99.90
4693;DHT22;11710;48.024;16.296;2023-01-25T07:01:04;4.00;99.90
4693;DHT22;11710;48.024;16.296;2023-01-25T07:03:32;4.00;99.90
4693;DHT22;11710;48.024;16.296;2023-01-25T07:06:01;4.00;99.90
4693;DHT22;11710;48.024;16.296;2023-01-25T07:08:29;4.00;99.90
4693;DHT22;11710;48.024;16.296;2023-01-25T07:11:00;4.10;99.90
4693;DHT22;11710;48.024;16.296;2023-01-25T07:13:29;4.10;99.90
4693;DHT22;11710;48.024;16.296;2023-01-25T07:15:59;4.10;99.90
4693;DHT22;11710;48.024;16.296;2023-01-25T07:18:28;4.10;99.90
4693;DHT22;11710;48.024;16.296;2023-01-25T07:21:02;4.10;99.90
4693;DHT22;11710;48.024;16.296;2023-01-25T07:23:30;4.10;99.90
4693;DHT22;11710;48.024;16.296;2023-01-25T07:25:59;4.10;99.90
4693;DHT22;11710;48.024;16.296;2023-01-25T07:28:28;4.10;99.90
4693;DHT22;11710;48.024;16.296;2023-01-25T07:31:03;4.10;99.90
4693;DHT22;11710;48.024;16.296;2023-01-25T07:33:30;4.20;99.90
4693;DHT22;11710;48.024;16.296;2023-01-25T07:35:59;4.20;99.90
4693;DHT22;11710;48.024;16.296;2023-01-25T07:38:26;4.20;99.90
4693;DHT22;11710;48.024;16.296;2023-01-25T07:40:53;4.20;99.90
4693;DHT22;11710;48.024;16.296;2023-01-25T07:43:20;4.20;99.90
4693;DHT22;11710;48.024;16.296;2023-01-25T07:45:49;4.20;99.90
4693;DHT22;11710;48.024;16.296;2023-01-25T07:48:18;4.20;99.90
4693;DHT22;11710;48.024;16.296;2023-01-25T07:50:46;4.20;99.90
4693;DHT22;11710;48.024;16.296;2023-01-25T07:53:33;4.30;99.90
4693;DHT22;11710;48.024;16.296;2023-01-25T07:56:00;4.30;99.90
4693;DHT22;11710;48.024;16.296;2023-01-25T07:58:27;4.30;99.90
4693;DHT22;11710;48.024;16.296;2023-01-25T08:00:56;4.30;99.90
4693;DHT22;11710;48.024;16.296;2023-01-25T08:03:23;4.30;99.90
4693;DHT22;11710;48.024;16.296;2023-01-25T08:05:51;4.30;99.90
4693;DHT22;11710;48.024;16.296;2023-01-25T08:08:19;4.30;99.90
4693;DHT22;11710;48.024;16.296;2023-01-25T08:10:47;4.30;99.90
4693;DHT22;11710;48.024;16.296;2023-01-25T08:13:15;4.40;99.90
4693;DHT22;11710;48.024;16.296;2023-01-25T08:15:42;4.40;99.90
4693;DHT22;11710;48.024;16.296;2023-01-25T08:18:11;4.40;99.90
4693;DHT22;11710;48.024;16.296;2023-01-25T08:20:38;4.40;99.90
4693;DHT22;11710;48.024;16.296;2023-01-25T08:23:11;4.40;99.90
4693;DHT22;11710;48.024;16.296;2023-01-25T08:25:48;4.50;99.90
4693;DHT22;11710;48.024;16.296;2023-01-25T08:28:15;4.60;99.90
4693;DHT22;11710;48.024;16.296;2023-01-25T08:30:42;4.60;99.90
4693;DHT22;11710;48.024;16.296;2023-01-25T08:33:11;4.60;99.90
4693;DHT22;11710;48.024;16.296;2023-01-25T08:35:38;4.70;99.90
4693;DHT22;11710;48.024;16.296;2023-01-25T08:38:05;4.70;99.90
4693;DHT22;11710;48.024;16.296;2023-01-25T08:40:32;4.80;99.90
4693;DHT22;11710;48.024;16.296;2023-01-25T08:42:59;4.80;99.90
4693;DHT22;11710;48.024;16.296;2023-01-25T08:45:27;4.80;99.90
4693;DHT22;11710;48.024;16.296;2023-01-25T08:47:59;4.80;99.90
4693;DHT22;11710;48.024;16.296;2023-01-25T08:50:27;4.80;99.90
4693;DHT22;11710;48.024;16.296;2023-01-25T08:52:58;4.90;99.90
4693;DHT22;11710;48.024;16.296;2023-01-25T08:55:25;4.90;99.90
4693;DHT22;11710;48.024;16.296;2023-01-25T08:57:52;4.90;99.90
4693;DHT22;11710;48.024;16.296;2023-01-25T09:00:20;4.90;99.90
4693;DHT22;11710;48.024;16.296;2023-01-25T09:02:48;5.00;99.90
4693;DHT22;11710;48.024;16.296;2023-01-25T09:05:15;5.00;99.90
4693;DHT22;11710;48.024;16.296;2023-01-25T09:07:44;5.00;99.90
4693;DHT22;11710;48.024;16.296;2023-01-25T09:10:11;5.00;99.90
4693;DHT22;11710;48.024;16.296;2023-01-25T09:12:38;5.00;99.90
4693;DHT22;11710;48.024;16.296;2023-01-25T09:15:06;5.10;99.90
4693;DHT22;11710;48.024;16.296;2023-01-25T09:17:33;5.10;99.90
4693;DHT22;11710;48.024;16.296;2023-01-25T09:20:05;5.10;99.90
4693;DHT22;11710;48.024;16.296;2023-01-25T09:22:33;5.00;99.90
4693;DHT22;11710;48.024;16.296;2023-01-25T09:25:02;5.00;99.90
4693;DHT22;11710;48.024;16.296;2023-01-25T09:27:29;5.00;99.90
4693;DHT22;11710;48.024;16.296;2023-01-25T09:29:56;5.00;99.90
4693;DHT22;11710;48.024;16.296;2023-01-25T09:32:23;4.90;99.90
4693;DHT22;11710;48.024;16.296;2023-01-25T09:34:50;4.90;99.90
4693;DHT22;11710;48.024;16.296;2023-01-25T09:37:18;4.90;99.90
4693;DHT22;11710;48.024;16.296;2023-01-25T09:39:46;4.90;99.90
4693;DHT22;11710;48.024;16.296;2023-01-25T09:42:28;4.90;99.90
4693;DHT22;11710;48.024;16.296;2023-01-25T09:45:16;4.80;99.90
4693;DHT22;11710;48.024;16.296;2023-01-25T09:47:50;4.80;99.90
4693;DHT22;11710;48.024;16.296;2023-01-25T09:50:33;4.80;99.90
4693;DHT22;11710;48.024;16.296;2023-01-25T09:53:22;4.90;99.90
4693;DHT22;11710;48.024;16.296;2023-01-25T09:55:53;4.90;99.90
4693;DHT22;11710;48.024;16.296;2023-01-25T09:58:29;4.90;99.90
4693;DHT22;11710;48.024;16.296;2023-01-25T10:01:26;4.90;99.90
4693;DHT22;11710;48.024;16.296;2023-01-25T10:03:56;4.90;99.90
4693;DHT22;11710;48.024;16.296;2023-01-25T10:06:35;4.90;99.90
4693;DHT22;11710;48.024;16.296;2023-01-25T10:09:16;4.90;99.90
4693;DHT22;11710;48.024;16.296;2023-01-25T10:11:46;4.90;99.90
4693;DHT22;11710;48.024;16.296;2023-01-25T10:14:17;4.90;99.90
4693;DHT22;11710;48.024;16.296;2023-01-25T10:16:57;5.00;99.90
4693;DHT22;11710;48.024;16.296;2023-01-25T10:19:33;5.00;99.90
4693;DHT22;11710;48.024;16.296;2023-01-25T10:22:09;5.00;99.90
4693;DHT22;11710;48.024;16.296;2023-01-25T10:25:18;5.00;99.90
4693;DHT22;11710;48.024;16.296;2023-01-25T10:27:56;5.00;99.90
4693;DHT22;11710;48.024;16.296;2023-01-25T10:30:32;5.00;99.90
4693;DHT22;11710;48.024;16.296;2023-01-25T10:33:10;5.00;99.90
4693;DHT22;11710;48.024;16.296;2023-01-25T10:35:38;5.10;99.90
4693;DHT22;11710;48.024;16.296;2023-01-25T10:38:14;5.10;99.90
4693;DHT22;11710;48.024;16.296;2023-01-25T10:40:47;5.10;99.90
4693;DHT22;11710;48.024;16.296;2023-01-25T10:43:17;5.10;99.90
4693;DHT22;11710;48.024;16.296;2023-01-25T10:45:47;5.00;99.90
4693;DHT22;11710;48.024;16.296;2023-01-25T10:48:18;4.90;99.90
4693;DHT22;11710;48.024;16.296;2023-01-25T10:50:51;4.80;99.90
4693;DHT22;11710;48.024;16.296;2023-01-25T10:53:24;4.90;99.90
4693;DHT22;11710;48.024;16.296;2023-01-25T10:56:03;4.80;99.90
4693;DHT22;11710;48.024;16.296;2023-01-25T10:58:34;4.80;99.90
4693;DHT22;11710;48.024;16.296;2023-01-25T11:01:04;4.80;99.90
4693;DHT22;11710;48.024;16.296;2023-01-25T11:03:35;4.80;99.90
4693;DHT22;11710;48.024;16.296;2023-01-25T11:06:04;4.90;99.90
4693;DHT22;11710;48.024;16.296;2023-01-25T11:08:37;4.90;99.90
4693;DHT22;11710;48.024;16.296;2023-01-25T11:11:36;4.90;99.90
4693;DHT22;11710;48.024;16.296;2023-01-25T11:14:14;4.90;99.90
4693;DHT22;11710;48.024;16.296;2023-01-25T11:16:45;4.80;99.90
4693;DHT22;11710;48.024;16.296;2023-01-25T11:19:29;4.80;99.90
4693;DHT22;11710;48.024;16.296;2023-01-25T11:21:58;4.80;99.90
4693;DHT22;11710;48.024;16.296;2023-01-25T11:24:27;4.80;99.90
4693;DHT22;11710;48.024;16.296;2023-01-25T11:27:17;4.90;99.90
4693;DHT22;11710;48.024;16.296;2023-01-25T11:29:45;4.90;99.90
4693;DHT22;11710;48.024;16.296;2023-01-25T11:32:19;4.90;99.90
4693;DHT22;11710;48.024;16.296;2023-01-25T11:34:50;4.90;99.90
4693;DHT22;11710;48.024;16.296;2023-01-25T11:37:31;4.90;99.90
4693;DHT22;11710;48.024;16.296;2023-01-25T11:40:12;4.90;99.90
4693;DHT22;11710;48.024;16.296;2023-01-25T11:42:46;5.00;99.90
4693;DHT22;11710;48.024;16.296;2023-01-25T11:51:31;5.00;99.90
4693;DHT22;11710;48.024;16.296;2023-01-25T11:54:26;5.00;99.90
4693;DHT22;11710;48.024;16.296;2023-01-25T11:56:58;5.00;99.90
4693;DHT22;11710;48.024;16.296;2023-01-25T11:59:44;5.10;99.90
4693;DHT22;11710;48.024;16.296;2023-01-25T12:02:42;5.10;99.90
4693;DHT22;11710;48.024;16.296;2023-01-25T12:05:39;5.10;99.90
4693;DHT22;11710;48.024;16.296;2023-01-25T12:11:07;5.00;99.90
4693;DHT22;11710;48.024;16.296;2023-01-25T12:13:39;5.10;99.90
4693;DHT22;11710;48.024;16.296;2023-01-25T12:16:30;5.00;99.90
4693;DHT22;11710;48.024;16.296;2023-01-25T12:19:13;5.10;99.90
4693;DHT22;11710;48.024;16.296;2023-01-25T12:21:53;5.10;99.90
4693;DHT22;11710;48.024;16.296;2023-01-25T12:24:35;5.10;99.90
4693;DHT22;11710;48.024;16.296;2023-01-25T12:27:10;5.10;99.90
4693;DHT22;11710;48.024;16.296;2023-01-25T12:29:45;5.10;99.90
4693;DHT22;11710;48.024;16.296;2023-01-25T12:32:25;5.10;99.90
4693;DHT22;11710;48.024;16.296;2023-01-25T12:35:02;5.00;99.90
4693;DHT22;11710;48.024;16.296;2023-01-25T12:37:35;5.00;99.90
4693;DHT22;11710;48.024;16.296;2023-01-25T12:40:08;5.00;99.90
4693;DHT22;11710;48.024;16.296;2023-01-25T12:42:42;4.90;99.90
4693;DHT22;11710;48.024;16.296;2023-01-25T12:45:13;4.90;99.90
4693;DHT22;11710;48.024;16.296;2023-01-25T12:47:44;5.00;99.90
4693;DHT22;11710;48.024;16.296;2023-01-25T12:50:16;5.00;99.90
4693;DHT22;11710;48.024;16.296;2023-01-25T12:52:49;4.90;99.90
4693;DHT22;11710;48.024;16.296;2023-01-25T12:55:18;4.90;99.90
4693;DHT22;11710;48.024;16.296;2023-01-25T12:57:52;4.90;99.90
4693;DHT22;11710;48.024;16.296;2023-01-25T13:00:27;4.80;99.90
4693;DHT22;11710;48.024;16.296;2023-01-25T13:03:15;4.80;99.90
4693;DHT22;11710;48.024;16.296;2023-01-25T13:05:47;4.70;99.90
4693;DHT22;11710;48.024;16.296;2023-01-25T13:08:23;4.70;99.90
4693;DHT22;11710;48.024;16.296;2023-01-25T13:11:08;4.70;99.90
4693;DHT22;11710;48.024;16.296;2023-01-25T13:13:36;4.70;99.90
4693;DHT22;11710;48.024;16.296;2023-01-25T13:16:30;4.80;99.90
4693;DHT22;11710;48.024;16.296;2023-01-25T13:18:59;4.80;99.90
4693;DHT22;11710;48.024;16.296;2023-01-25T13:21:41;4.80;99.90
4693;DHT22;11710;48.024;16.296;2023-01-25T13:24:16;4.80;99.90
4693;DHT22;11710;48.024;16.296;2023-01-25T13:26:58;4.80;99.90
4693;DHT22;11710;48.024;16.296;2023-01-25T13:29:50;4.80;99.90
4693;DHT22;11710;48.024;16.296;2023-01-25T13:32:51;4.80;99.90
4693;DHT22;11710;48.024;16.296;2023-01-25T13:35:38;4.80;99.90
4693;DHT22;11710;48.024;16.296;2023-01-25T13:38:33;4.80;99.90
4693;DHT22;11710;48.024;16.296;2023-01-25T13:41:11;4.80;99.90
4693;DHT22;11710;48.024;16.296;2023-01-25T13:43:42;4.70;99.90
4693;DHT22;11710;48.024;16.296;2023-01-25T13:46:14;4.70;99.90
4693;DHT22;11710;48.024;16.296;2023-01-25T13:48:52;4.70;99.90
4693;DHT22;11710;48.024;16.296;2023-01-25T13:51:22;4.70;99.90
4693;DHT22;11710;48.024;16.296;2023-01-25T13:53:55;4.70;99.90
4693;DHT22;11710;48.024;16.296;2023-01-25T13:56:29;4.70;99.90
4693;DHT22;11710;48.024;16.296;2023-01-25T13:58:57;4.60;99.90
4693;DHT22;11710;48.024;16.296;2023-01-25T14:01:25;4.70;99.90
4693;DHT22;11710;48.024;16.296;2023-01-25T14:03:55;4.60;99.90
4693;DHT22;11710;48.024;16.296;2023-01-25T14:06:26;4.60;99.90
4693;DHT22;11710;48.024;16.296;2023-01-25T14:08:56;4.50;99.90
4693;DHT22;11710;48.024;16.296;2023-01-25T14:11:27;4.50;99.90
4693;DHT22;11710;48.024;16.296;2023-01-25T14:13:56;4.30;99.90
4693;DHT22;11710;48.024;16.296;2023-01-25T14:16:24;4.30;99.90
4693;DHT22;11710;48.024;16.296;2023-01-25T14:18:55;4.30;99.90
4693;DHT22;11710;48.024;16.296;2023-01-25T14:21:24;4.30;99.90
4693;DHT22;11710;48.024;16.296;2023-01-25T14:23:51;4.20;99.90
4693;DHT22;11710;48.024;16.296;2023-01-25T14:26:21;4.20;99.90
4693;DHT22;11710;48.024;16.296;2023-01-25T14:28:53;4.20;99.90
4693;DHT22;11710;48.024;16.296;2023-01-25T14:31:23;4.10;99.90
4693;DHT22;11710;48.024;16.296;2023-01-25T14:33:51;4.10;99.90
4693;DHT22;11710;48.024;16.296;2023-01-25T14:36:25;4.10;99.90
4693;DHT22;11710;48.024;16.296;2023-01-25T14:38:55;4.10;99.90
4693;DHT22;11710;48.024;16.296;2023-01-25T14:41:26;4.20;99.90
4693;DHT22;11710;48.024;16.296;2023-01-25T14:43:57;4.10;99.90
4693;DHT22;11710;48.024;16.296;2023-01-25T14:46:27;4.10;99.90
4693;DHT22;11710;48.024;16.296;2023-01-25T14:49:22;4.10;99.90
4693;DHT22;11710;48.024;16.296;2023-01-25T14:52:03;4.00;99.90
4693;DHT22;11710;48.024;16.296;2023-01-25T14:54:33;4.00;99.90
4693;DHT22;11710;48.024;16.296;2023-01-25T14:57:02;3.90;99.90
4693;DHT22;11710;48.024;16.296;2023-01-25T14:59:34;3.90;99.90
4693;DHT22;11710;48.024;16.296;2023-01-25T15:02:12;3.90;99.90
4693;DHT22;11710;48.024;16.296;2023-01-25T15:04:51;3.90;99.90
4693;DHT22;11710;48.024;16.296;2023-01-25T15:07:40;3.80;99.90
4693;DHT22;11710;48.024;16.296;2023-01-25T15:10:19;3.70;99.90
4693;DHT22;11710;48.024;16.296;2023-01-25T15:12:59;3.70;99.90
4693;DHT22;11710;48.024;16.296;2023-01-25T15:15:30;3.70;99.90
4693;DHT22;11710;48.024;16.296;2023-01-25T15:17:59;3.60;99.90
4693;DHT22;11710;48.024;16.296;2023-01-25T15:20:31;3.60;99.90
4693;DHT22;11710;48.024;16.296;2023-01-25T15:23:01;3.60;99.90
4693;DHT22;11710;48.024;16.296;2023-01-25T15:25:29;3.70;99.90
4693;DHT22;11710;48.024;16.296;2023-01-25T15:27:56;3.80;99.90
4693;DHT22;11710;48.024;16.296;2023-01-25T15:30:24;3.80;99.90
4693;DHT22;11710;48.024;16.296;2023-01-25T15:32:53;3.90;99.90
4693;DHT22;11710;48.024;16.296;2023-01-25T15:35:20;3.90;99.90
4693;DHT22;11710;48.024;16.296;2023-01-25T15:37:48;3.90;99.90
4693;DHT22;11710;48.024;16.296;2023-01-25T15:40:15;4.00;99.90
4693;DHT22;11710;48.024;16.296;2023-01-25T15:42:43;4.00;99.90
4693;DHT22;11710;48.024;16.296;2023-01-25T15:45:10;4.00;99.90
4693;DHT22;11710;48.024;16.296;2023-01-25T15:47:38;4.00;99.90
4693;DHT22;11710;48.024;16.296;2023-01-25T15:50:15;4.00;99.90
4693;DHT22;11710;48.024;16.296;2023-01-25T15:52:43;4.00;99.90
4693;DHT22;11710;48.024;16.296;2023-01-25T15:55:12;4.10;99.90
4693;DHT22;11710;48.024;16.296;2023-01-25T15:57:40;4.10;99.90
4693;DHT22;11710;48.024;16.296;2023-01-25T16:00:16;4.10;99.90
4693;DHT22;11710;48.024;16.296;2023-01-25T16:02:43;4.10;99.90
4693;DHT22;11710;48.024;16.296;2023-01-25T16:05:12;4.10;99.90
4693;DHT22;11710;48.024;16.296;2023-01-25T16:07:41;4.10;99.90
4693;DHT22;11710;48.024;16.296;2023-01-25T16:10:18;4.10;99.90
4693;DHT22;11710;48.024;16.296;2023-01-25T16:12:48;4.10;99.90
4693;DHT22;11710;48.024;16.296;2023-01-25T16:15:15;4.10;99.90
4693;DHT22;11710;48.024;16.296;2023-01-25T16:17:43;4.10;99.90
4693;DHT22;11710;48.024;16.296;2023-01-25T16:20:18;4.10;99.90
4693;DHT22;11710;48.024;16.296;2023-01-25T16:22:45;4.10;99.90
4693;DHT22;11710;48.024;16.296;2023-01-25T16:25:13;4.10;99.90
4693;DHT22;11710;48.024;16.296;2023-01-25T16:27:40;4.10;99.90
4693;DHT22;11710;48.024;16.296;2023-01-25T16:30:18;4.10;99.90
4693;DHT22;11710;48.024;16.296;2023-01-25T16:32:46;4.10;99.90
4693;DHT22;11710;48.024;16.296;2023-01-25T16:35:16;4.10;99.90
4693;DHT22;11710;48.024;16.296;2023-01-25T16:37:43;4.10;99.90
4693;DHT22;11710;48.024;16.296;2023-01-25T16:40:22;4.00;99.90
4693;DHT22;11710;48.024;16.296;2023-01-25T16:42:50;4.00;99.90
4693;DHT22;11710;48.024;16.296;2023-01-25T16:45:18;4.00;99.90
4693;DHT22;11710;48.024;16.296;2023-01-25T16:47:46;4.00;99.90
4693;DHT22;11710;48.024;16.296;2023-01-25T16:50:16;4.00;99.90
4693;DHT22;11710;48.024;16.296;2023-01-25T16:52:44;3.90;99.90
4693;DHT22;11710;48.024;16.296;2023-01-25T16:55:15;3.80;99.90
4693;DHT22;11710;48.024;16.296;2023-01-25T16:57:43;3.90;99.90
4693;DHT22;11710;48.024;16.296;2023-01-25T17:00:12;3.80;99.90
4693;DHT22;11710;48.024;16.296;2023-01-25T17:02:41;3.80;99.90
4693;DHT22;11710;48.024;16.296;2023-01-25T17:05:09;3.90;99.90
4693;DHT22;11710;48.024;16.296;2023-01-25T17:07:47;3.90;99.90
4693;DHT22;11710;48.024;16.296;2023-01-25T17:10:17;3.90;99.90
4693;DHT22;11710;48.024;16.296;2023-01-25T17:12:46;3.90;99.90
4693;DHT22;11710;48.024;16.296;2023-01-25T17:15:14;3.90;99.90
4693;DHT22;11710;48.024;16.296;2023-01-25T17:17:44;3.90;99.90
4693;DHT22;11710;48.024;16.296;2023-01-25T17:20:11;3.90;99.90
4693;DHT22;11710;48.024;16.296;2023-01-25T17:22:40;3.90;99.90
4693;DHT22;11710;48.024;16.296;2023-01-25T17:25:11;3.90;99.90
4693;DHT22;11710;48.024;16.296;2023-01-25T17:27:38;3.80;99.90
4693;DHT22;11710;48.024;16.296;2023-01-25T17:30:07;3.90;99.90
4693;DHT22;11710;48.024;16.296;2023-01-25T17:32:34;3.80;99.90
4693;DHT22;11710;48.024;16.296;2023-01-25T17:35:01;3.90;99.90
4693;DHT22;11710;48.024;16.296;2023-01-25T17:37:29;3.80;99.90
4693;DHT22;11710;48.024;16.296;2023-01-25T17:39:58;3.90;99.90
4693;DHT22;11710;48.024;16.296;2023-01-25T17:42:25;3.90;99.90
4693;DHT22;11710;48.024;16.296;2023-01-25T17:44:52;3.90;99.90
4693;DHT22;11710;48.024;16.296;2023-01-25T17:47:19;3.90;99.90
4693;DHT22;11710;48.024;16.296;2023-01-25T17:49:46;3.90;99.90
4693;DHT22;11710;48.024;16.296;2023-01-25T17:52:14;3.90;99.90
4693;DHT22;11710;48.024;16.296;2023-01-25T17:54:41;3.90;99.90
4693;DHT22;11710;48.024;16.296;2023-01-25T17:57:10;3.90;99.90
4693;DHT22;11710;48.024;16.296;2023-01-25T17:59:37;3.90;99.90
4693;DHT22;11710;48.024;16.296;2023-01-25T18:02:04;3.90;99.90
4693;DHT22;11710;48.024;16.296;2023-01-25T18:04:32;3.90;99.90
4693;DHT22;11710;48.024;16.296;2023-01-25T18:07:00;3.90;99.90
4693;DHT22;11710;48.024;16.296;2023-01-25T18:09:27;3.90;99.90
4693;DHT22;11710;48.024;16.296;2023-01-25T18:11:56;3.90;99.90
4693;DHT22;11710;48.024;16.296;2023-01-25T18:14:24;3.90;99.90
4693;DHT22;11710;48.024;16.296;2023-01-25T18:16:54;3.90;99.90
4693;DHT22;11710;48.024;16.296;2023-01-25T18:19:22;3.90;99.90
4693;DHT22;11710;48.024;16.296;2023-01-25T18:21:49;3.80;99.90
4693;DHT22;11710;48.024;16.296;2023-01-25T18:24:29;3.80;99.90
4693;DHT22;11710;48.024;16.296;2023-01-25T18:27:01;3.70;99.90
4693;DHT22;11710;48.024;16.296;2023-01-25T18:29:44;3.60;99.90
4693;DHT22;11710;48.024;16.296;2023-01-25T18:32:12;3.60;99.90
4693;DHT22;11710;48.024;16.296;2023-01-25T18:34:40;3.60;99.90
4693;DHT22;11710;48.024;16.296;2023-01-25T18:37:07;3.50;99.90
4693;DHT22;11710;48.024;16.296;2023-01-25T18:39:45;3.50;99.90
4693;DHT22;11710;48.024;16.296;2023-01-25T18:42:13;3.50;99.90
4693;DHT22;11710;48.024;16.296;2023-01-25T18:44:41;3.40;99.90
4693;DHT22;11710;48.024;16.296;2023-01-25T18:47:13;3.40;99.90
4693;DHT22;11710;48.024;16.296;2023-01-25T18:49:41;3.30;99.90
4693;DHT22;11710;48.024;16.296;2023-01-25T18:52:08;3.30;99.90
4693;DHT22;11710;48.024;16.296;2023-01-25T18:54:37;3.20;99.90
4693;DHT22;11710;48.024;16.296;2023-01-25T18:57:05;3.20;99.90
4693;DHT22;11710;48.024;16.296;2023-01-25T18:59:34;3.10;99.90
4693;DHT22;11710;48.024;16.296;2023-01-25T19:02:10;3.10;99.90
4693;DHT22;11710;48.024;16.296;2023-01-25T19:04:42;3.10;99.90
4693;DHT22;11710;48.024;16.296;2023-01-25T19:07:12;3.10;99.90
4693;DHT22;11710;48.024;16.296;2023-01-25T19:09:41;3.00;99.90
4693;DHT22;11710;48.024;16.296;2023-01-25T19:12:10;3.00;99.90
4693;DHT22;11710;48.024;16.296;2023-01-25T19:14:37;3.00;99.90
4693;DHT22;11710;48.024;16.296;2023-01-25T19:17:06;3.00;99.90
4693;DHT22;11710;48.024;16.296;2023-01-25T19:19:33;3.10;99.90
4693;DHT22;11710;48.024;16.296;2023-01-25T19:22:01;3.00;99.90
4693;DHT22;11710;48.024;16.296;2023-01-25T19:24:28;3.00;99.90
4693;DHT22;11710;48.024;16.296;2023-01-25T19:26:55;3.10;99.90
4693;DHT22;11710;48.024;16.296;2023-01-25T19:29:22;3.10;99.90
4693;DHT22;11710;48.024;16.296;2023-01-25T19:31:50;3.20;99.90
4693;DHT22;11710;48.024;16.296;2023-01-25T19:34:18;3.20;99.90
4693;DHT22;11710;48.024;16.296;2023-01-25T19:36:46;3.20;99.90
4693;DHT22;11710;48.024;16.296;2023-01-25T19:39:15;3.20;99.90
4693;DHT22;11710;48.024;16.296;2023-01-25T19:41:43;3.10;99.90
4693;DHT22;11710;48.024;16.296;2023-01-25T19:44:12;3.00;99.90
4693;DHT22;11710;48.024;16.296;2023-01-25T19:46:39;2.90;99.90
4693;DHT22;11710;48.024;16.296;2023-01-25T19:49:08;2.80;99.90
4693;DHT22;11710;48.024;16.296;2023-01-25T19:51:39;2.80;99.90
4693;DHT22;11710;48.024;16.296;2023-01-25T19:54:12;2.70;99.90
4693;DHT22;11710;48.024;16.296;2023-01-25T19:56:41;2.70;99.90
4693;DHT22;11710;48.024;16.296;2023-01-25T19:59:11;2.70;99.90
4693;DHT22;11710;48.024;16.296;2023-01-25T20:01:39;2.70;99.90
4693;DHT22;11710;48.024;16.296;2023-01-25T20:04:09;2.60;99.90
4693;DHT22;11710;48.024;16.296;2023-01-25T20:06:38;2.60;99.90
4693;DHT22;11710;48.024;16.296;2023-01-25T20:09:05;2.50;99.90
4693;DHT22;11710;48.024;16.296;2023-01-25T20:11:34;2.40;99.90
4693;DHT22;11710;48.024;16.296;2023-01-25T20:14:03;2.40;99.90
4693;DHT22;11710;48.024;16.296;2023-01-25T20:16:32;2.50;99.90
4693;DHT22;11710;48.024;16.296;2023-01-25T20:19:00;2.40;99.90
4693;DHT22;11710;48.024;16.296;2023-01-25T20:21:29;2.40;99.90
4693;DHT22;11710;48.024;16.296;2023-01-25T20:24:02;2.50;99.90
4693;DHT22;11710;48.024;16.296;2023-01-25T20:26:32;2.40;99.90
4693;DHT22;11710;48.024;16.296;2023-01-25T20:29:01;2.40;99.90
4693;DHT22;11710;48.024;16.296;2023-01-25T20:31:30;2.30;99.90
4693;DHT22;11710;48.024;16.296;2023-01-25T20:33:59;2.30;99.90
4693;DHT22;11710;48.024;16.296;2023-01-25T20:36:28;2.30;99.90
4693;DHT22;11710;48.024;16.296;2023-01-25T20:38:55;2.20;99.90
4693;DHT22;11710;48.024;16.296;2023-01-25T20:41:24;2.20;99.90
4693;DHT22;11710;48.024;16.296;2023-01-25T20:43:53;2.10;99.90
4693;DHT22;11710;48.024;16.296;2023-01-25T20:46:24;2.10;99.90
4693;DHT22;11710;48.024;16.296;2023-01-25T20:48:52;2.20;99.90
4693;DHT22;11710;48.024;16.296;2023-01-25T20:51:20;2.10;99.90
4693;DHT22;11710;48.024;16.296;2023-01-25T20:53:49;2.10;99.90
4693;DHT22;11710;48.024;16.296;2023-01-25T20:56:18;2.10;99.90
